createdAt,value
2022-11-10T00:01:20.817Z,3.50
2022-11-10T00:04:08.486Z,2.87
2022-11-10T00:06:55.469Z,2.63
2022-11-10T00:09:41.971Z,2.37
2022-11-10T00:12:30.670Z,2.00
2022-11-10T00:15:34.227Z,2.20
2022-11-10T00:18:20.833Z,2.83
2022-11-10T00:21:09.457Z,2.73
2022-11-10T00:23:56.360Z,2.57
2022-11-10T00:26:42.713Z,2.57
2022-11-10T00:33:42.329Z,2.87
2022-11-10T00:36:29.978Z,2.30
2022-11-10T00:39:17.076Z,2.40
2022-11-10T00:42:03.208Z,2.40
2022-11-10T00:44:49.578Z,2.43
2022-11-10T00:47:36.091Z,3.23
2022-11-10T00:50:23.422Z,2.83
2022-11-10T00:53:10.848Z,2.60
2022-11-10T00:55:57.466Z,2.73
2022-11-10T00:58:43.995Z,2.27
2022-11-10T01:01:30.322Z,2.57
2022-11-10T01:04:16.723Z,2.60
2022-11-10T01:07:03.191Z,2.40
2022-11-10T01:09:50.805Z,2.47
2022-11-10T01:12:37.353Z,2.27
2022-11-10T01:15:27.553Z,2.70
2022-11-10T01:18:14.670Z,2.23
2022-11-10T01:21:01.293Z,2.23
2022-11-10T01:23:48.468Z,2.20
2022-11-10T01:26:36.109Z,2.30
2022-11-10T01:29:23.297Z,2.03
2022-11-10T01:32:09.506Z,1.97
2022-11-10T01:34:57.170Z,2.67
2022-11-10T01:37:43.803Z,2.90
2022-11-10T01:40:30.372Z,2.40
2022-11-10T01:43:17.856Z,2.07
2022-11-10T01:49:14.055Z,2.27
2022-11-10T01:52:02.976Z,2.03
2022-11-10T01:54:49.994Z,2.43
2022-11-10T01:57:37.243Z,2.40
2022-11-10T02:00:24.761Z,2.40
2022-11-10T02:03:13.174Z,2.77
2022-11-10T02:05:59.875Z,2.30
2022-11-10T02:08:47.916Z,2.60
2022-11-10T02:11:34.387Z,2.43
2022-11-10T02:14:21.509Z,1.83
2022-11-10T02:17:09.341Z,2.73
2022-11-10T02:19:59.954Z,2.90
2022-11-10T02:22:47.482Z,2.37
2022-11-10T02:25:34.162Z,2.50
2022-11-10T02:28:20.731Z,2.93
2022-11-10T02:31:09.245Z,2.77
2022-11-10T02:33:55.655Z,2.43
2022-11-10T02:36:42.327Z,2.27
2022-11-10T02:39:30.210Z,2.07
2022-11-10T02:42:16.935Z,2.27
2022-11-10T02:45:03.277Z,2.40
2022-11-10T02:47:49.746Z,2.80
2022-11-10T02:50:35.958Z,2.30
2022-11-10T02:53:23.184Z,2.60
2022-11-10T02:56:12.989Z,2.87
2022-11-10T02:59:00.333Z,2.10
2022-11-10T03:01:46.772Z,2.10
2022-11-10T03:04:34.482Z,2.37
2022-11-10T03:07:21.000Z,2.47
2022-11-10T03:10:08.329Z,2.60
2022-11-10T03:12:56.340Z,2.63
2022-11-10T03:23:47.847Z,2.60
2022-11-10T03:26:34.326Z,2.50
2022-11-10T03:29:21.748Z,2.80
2022-11-10T03:32:07.791Z,2.47
2022-11-10T03:34:54.255Z,2.17
2022-11-10T03:37:41.984Z,2.67
2022-11-10T03:40:28.498Z,2.17
2022-11-10T03:43:14.966Z,2.37
2022-11-10T03:46:03.090Z,2.43
2022-11-10T03:48:53.501Z,2.87
2022-11-10T03:51:40.765Z,2.93
2022-11-10T03:54:27.411Z,2.30
2022-11-10T03:57:14.521Z,2.40
2022-11-10T04:00:00.615Z,2.97
2022-11-10T04:02:48.931Z,3.20
2022-11-10T04:05:52.679Z,2.80
2022-11-10T04:08:56.868Z,3.20
2022-11-10T04:12:00.756Z,2.60
2022-11-10T04:15:04.710Z,3.30
2022-11-10T04:17:52.741Z,2.57
2022-11-10T04:20:39.459Z,2.90
2022-11-10T04:23:28.975Z,3.17
2022-11-10T04:26:30.918Z,2.73
2022-11-10T04:29:17.836Z,2.97
2022-11-10T04:32:04.971Z,3.10
2022-11-10T04:34:52.603Z,3.30
2022-11-10T04:37:39.665Z,2.80
2022-11-10T04:40:25.989Z,2.70
2022-11-10T04:43:12.686Z,3.00
2022-11-10T04:45:59.065Z,2.97
2022-11-10T04:48:45.801Z,2.80
2022-11-10T04:51:34.586Z,3.03
2022-11-10T04:54:21.661Z,2.80
2022-11-10T04:57:07.954Z,3.13
2022-11-10T04:59:54.595Z,3.60
2022-11-10T05:02:40.619Z,3.17
2022-11-10T05:05:27.149Z,3.37
2022-11-10T05:08:15.805Z,3.93
2022-11-10T05:11:02.837Z,2.90
2022-11-10T05:13:48.883Z,3.90
2022-11-10T05:16:35.279Z,3.53
2022-11-10T05:19:21.483Z,3.90
2022-11-10T05:22:08.298Z,3.40
2022-11-10T05:24:56.120Z,4.07
2022-11-10T05:27:42.372Z,3.77
2022-11-10T05:30:28.545Z,3.00
2022-11-10T05:33:14.813Z,3.90
2022-11-10T05:36:01.762Z,3.67
2022-11-10T05:38:48.249Z,3.50
2022-11-10T05:41:35.997Z,3.30
2022-11-10T05:44:23.080Z,3.73
2022-11-10T05:47:09.916Z,3.60
2022-11-10T05:49:56.766Z,3.87
2022-11-10T05:52:47.672Z,3.70
2022-11-10T05:55:37.523Z,4.00
2022-11-10T05:58:25.433Z,5.37
2022-11-10T06:01:11.782Z,4.43
2022-11-10T06:03:58.416Z,3.93
2022-11-10T06:06:45.020Z,4.30
2022-11-10T06:09:32.312Z,4.50
2022-11-10T06:12:18.567Z,3.97
2022-11-10T06:15:08.424Z,3.70
2022-11-10T06:17:55.225Z,4.67
2022-11-10T06:20:42.106Z,4.50
2022-11-10T06:23:30.010Z,4.90
2022-11-10T06:26:17.478Z,3.60
2022-11-10T06:29:04.059Z,4.80
2022-11-10T06:31:52.121Z,4.73
2022-11-10T06:34:38.521Z,4.33
2022-11-10T06:37:25.190Z,5.00
2022-11-10T06:40:12.708Z,4.80
2022-11-10T06:43:00.436Z,6.00
2022-11-10T06:45:46.857Z,4.80
2022-11-10T06:48:35.718Z,5.50
2022-11-10T06:51:21.887Z,5.27
2022-11-10T06:54:08.653Z,5.20
2022-11-10T06:56:54.788Z,5.33
2022-11-10T06:59:41.462Z,5.30
2022-11-10T07:02:27.872Z,5.63
2022-11-10T07:05:16.612Z,4.97
2022-11-10T07:08:03.632Z,5.17
2022-11-10T07:10:52.564Z,5.50
2022-11-10T07:13:39.134Z,5.30
2022-11-10T07:16:25.546Z,5.27
2022-11-10T07:19:11.847Z,5.63
2022-11-10T07:21:59.850Z,5.00
2022-11-10T07:24:46.007Z,4.80
2022-11-10T07:27:34.059Z,4.67
2022-11-10T07:30:20.427Z,4.73
2022-11-10T07:33:08.525Z,4.67
2022-11-10T07:35:56.231Z,4.30
2022-11-10T07:38:44.459Z,4.87
2022-11-10T07:41:30.819Z,4.43
2022-11-10T07:48:26.290Z,4.40
2022-11-10T07:51:13.047Z,4.77
2022-11-10T07:54:00.946Z,4.80
2022-11-10T07:56:47.293Z,5.37
2022-11-10T07:59:34.170Z,4.60
2022-11-10T08:02:20.717Z,4.90
2022-11-10T08:05:07.836Z,4.57
2022-11-10T08:07:54.283Z,4.50
2022-11-10T08:10:42.915Z,4.50
2022-11-10T08:13:29.071Z,4.30
2022-11-10T08:16:15.797Z,5.33
2022-11-10T08:19:01.990Z,5.10
2022-11-10T08:21:48.360Z,5.00
2022-11-10T08:24:35.651Z,4.60
2022-11-10T08:27:23.941Z,5.20
2022-11-10T08:30:10.711Z,9.93
2022-11-10T08:32:57.890Z,4.50
2022-11-10T08:35:45.213Z,5.20
2022-11-10T08:38:32.078Z,4.47
2022-11-10T08:41:18.340Z,4.50
2022-11-10T08:44:10.685Z,4.77
2022-11-10T08:46:57.423Z,4.90
2022-11-10T08:49:44.099Z,4.63
2022-11-10T08:52:30.199Z,4.90
2022-11-10T08:55:16.897Z,4.93
2022-11-10T08:58:04.239Z,4.63
2022-11-10T09:00:52.802Z,4.50
2022-11-10T09:03:39.206Z,5.30
2022-11-10T09:06:25.921Z,4.70
2022-11-10T09:09:12.763Z,4.90
2022-11-10T09:11:59.594Z,5.20
2022-11-10T09:14:45.969Z,4.23
2022-11-10T09:17:33.962Z,4.63
2022-11-10T09:20:20.483Z,3.90
2022-11-10T09:23:07.569Z,5.40
2022-11-10T09:25:54.995Z,5.47
2022-11-10T09:28:42.802Z,4.40
2022-11-10T09:31:28.998Z,4.90
2022-11-10T09:34:17.253Z,4.90
2022-11-10T09:37:03.185Z,5.03
2022-11-10T09:39:49.906Z,4.40
2022-11-10T09:42:37.730Z,6.33
2022-11-10T09:45:26.779Z,5.53
2022-11-10T09:48:18.385Z,5.80
2022-11-10T09:51:07.932Z,4.73
2022-11-10T09:53:56.882Z,5.27
2022-11-10T09:56:43.030Z,5.10
2022-11-10T09:59:30.418Z,4.97
2022-11-10T10:02:21.704Z,5.33
2022-11-10T10:05:33.719Z,5.17
2022-11-10T10:08:25.131Z,4.30
2022-11-10T10:11:17.753Z,4.50
2022-11-10T10:14:12.693Z,5.03
2022-11-10T10:17:01.832Z,4.63
2022-11-10T10:19:52.049Z,4.57
2022-11-10T10:22:52.204Z,4.30
2022-11-10T10:25:41.997Z,4.37
2022-11-10T10:28:33.129Z,3.37
2022-11-10T10:31:21.019Z,4.17
2022-11-10T10:34:10.725Z,4.20
2022-11-10T10:36:56.981Z,3.90
2022-11-10T10:39:45.074Z,3.47
2022-11-10T10:42:34.279Z,3.70
2022-11-10T10:45:22.675Z,3.43
2022-11-10T10:48:24.832Z,3.80
2022-11-10T10:51:11.467Z,3.23
2022-11-10T10:53:58.526Z,3.53
2022-11-10T10:56:45.257Z,4.50
2022-11-10T10:59:33.465Z,3.70
2022-11-10T11:02:23.488Z,3.90
2022-11-10T11:05:11.004Z,4.43
2022-11-10T11:07:58.089Z,3.20
2022-11-10T11:10:46.181Z,2.90
2022-11-10T11:13:32.813Z,3.67
2022-11-10T11:16:21.125Z,3.47
2022-11-10T11:19:09.382Z,3.60
2022-11-10T11:22:06.224Z,3.23
2022-11-10T11:24:54.295Z,3.07
2022-11-10T11:27:46.306Z,3.53
2022-11-10T11:30:40.242Z,3.80
2022-11-10T11:33:34.061Z,3.50
2022-11-10T11:36:25.432Z,3.07
2022-11-10T11:39:17.938Z,3.10
2022-11-10T11:42:08.686Z,3.40
2022-11-10T11:45:03.005Z,3.13
2022-11-10T11:47:56.130Z,2.60
2022-11-10T11:50:50.586Z,2.60
2022-11-10T11:53:44.530Z,3.00
2022-11-10T11:56:32.378Z,3.03
2022-11-10T11:59:25.439Z,2.40
2022-11-10T12:02:27.885Z,3.30
2022-11-10T12:05:19.467Z,3.00
2022-11-10T12:08:14.952Z,2.80
2022-11-10T12:11:07.489Z,2.90
2022-11-10T12:13:59.034Z,3.27
2022-11-10T12:16:48.370Z,3.57
2022-11-10T12:19:38.046Z,3.33
2022-11-10T12:22:32.019Z,3.10
2022-11-10T12:25:25.486Z,3.00
2022-11-10T12:28:14.349Z,3.00
2022-11-10T12:31:03.130Z,3.53
2022-11-10T12:33:51.009Z,3.40
2022-11-10T12:36:38.724Z,2.67
2022-11-10T12:39:26.102Z,2.90
2022-11-10T12:42:17.047Z,2.70
2022-11-10T12:45:05.752Z,3.37
2022-11-10T12:47:54.212Z,3.73
2022-11-10T12:50:44.821Z,3.30
2022-11-10T12:53:32.760Z,2.97
2022-11-10T12:56:19.774Z,2.23
2022-11-10T12:59:28.565Z,2.70
2022-11-10T13:02:19.839Z,2.70
2022-11-10T13:05:24.602Z,3.00
2022-11-10T13:08:32.830Z,2.37
2022-11-10T13:11:24.601Z,2.70
2022-11-10T13:14:20.921Z,4.10
2022-11-10T13:17:09.211Z,3.20
2022-11-10T13:19:55.889Z,3.00
2022-11-10T13:22:43.529Z,4.03
2022-11-10T13:25:43.040Z,3.40
2022-11-10T13:28:48.006Z,3.07
2022-11-10T13:31:55.810Z,3.70
2022-11-10T13:34:43.764Z,3.40
2022-11-10T13:37:51.815Z,3.70
2022-11-10T13:40:39.649Z,2.57
2022-11-10T13:43:26.870Z,3.53
2022-11-10T13:46:13.606Z,3.57
2022-11-10T13:49:18.555Z,3.13
2022-11-10T13:52:12.013Z,3.17
2022-11-10T13:55:15.798Z,3.23
2022-11-10T13:58:03.796Z,2.93
2022-11-10T14:00:51.926Z,3.00
2022-11-10T14:04:02.046Z,2.80
2022-11-10T14:06:50.345Z,2.87
2022-11-10T14:09:40.588Z,3.60
2022-11-10T14:12:29.243Z,3.23
2022-11-10T14:15:17.169Z,3.37
2022-11-10T14:18:04.189Z,2.87
2022-11-10T14:20:55.531Z,2.80
2022-11-10T14:23:44.595Z,3.33
2022-11-10T14:26:33.990Z,2.73
2022-11-10T14:29:21.201Z,2.47
2022-11-10T14:32:14.615Z,3.70
2022-11-10T14:35:01.760Z,2.93
2022-11-10T14:37:48.597Z,2.93
2022-11-10T14:40:34.750Z,3.83
2022-11-10T14:43:29.743Z,3.17
2022-11-10T14:46:16.075Z,3.60
2022-11-10T14:49:03.755Z,3.30
2022-11-10T14:51:51.113Z,4.80
2022-11-10T14:54:38.781Z,3.80
2022-11-10T14:57:25.373Z,3.30
2022-11-10T15:00:17.618Z,2.73
2022-11-10T15:03:06.244Z,3.33
2022-11-10T15:05:53.034Z,3.80
2022-11-10T15:08:39.809Z,4.90
2022-11-10T15:11:37.327Z,3.37
2022-11-10T15:14:47.511Z,3.80
2022-11-10T15:17:50.045Z,3.90
2022-11-10T15:20:37.990Z,3.83
2022-11-10T15:23:33.093Z,3.77
2022-11-10T15:26:21.336Z,3.60
2022-11-10T15:29:19.003Z,3.70
2022-11-10T15:32:13.560Z,3.70
2022-11-10T15:38:26.047Z,4.90
2022-11-10T15:41:14.247Z,5.60
2022-11-10T15:44:13.198Z,3.63
2022-11-10T15:47:00.060Z,4.83
2022-11-10T15:49:46.842Z,4.40
2022-11-10T15:52:35.046Z,4.00
2022-11-10T15:55:22.549Z,4.23
2022-11-10T15:58:17.034Z,4.50
2022-11-10T16:01:03.488Z,4.33
2022-11-10T16:03:50.478Z,4.23
2022-11-10T16:06:36.964Z,4.33
2022-11-10T16:09:24.913Z,4.03
2022-11-10T16:12:14.972Z,3.60
2022-11-10T16:15:01.460Z,5.30
2022-11-10T16:17:47.581Z,5.10
2022-11-10T16:20:34.686Z,6.40
2022-11-10T16:23:20.973Z,6.77
2022-11-10T16:26:11.485Z,7.50
2022-11-10T16:28:57.846Z,6.70
2022-11-10T16:31:45.082Z,6.47
2022-11-10T16:34:31.365Z,6.20
2022-11-10T16:37:18.318Z,7.00
2022-11-10T16:40:04.760Z,5.97
2022-11-10T16:42:53.144Z,5.90
2022-11-10T16:45:42.470Z,7.43
2022-11-10T16:48:30.096Z,5.97
2022-11-10T16:51:17.946Z,5.33
2022-11-10T16:54:05.035Z,5.63
2022-11-10T16:56:51.352Z,5.47
2022-11-10T16:59:41.026Z,6.10
2022-11-10T17:02:29.554Z,5.20
2022-11-10T17:05:16.353Z,4.77
2022-11-10T17:08:04.245Z,5.60
2022-11-10T17:10:50.928Z,6.07
2022-11-10T17:13:37.928Z,5.70
2022-11-10T17:16:29.591Z,5.80
2022-11-10T17:19:21.312Z,5.83
2022-11-10T17:22:10.985Z,6.10
2022-11-10T17:24:57.468Z,5.67
2022-11-10T17:27:44.787Z,5.37
2022-11-10T17:30:30.866Z,4.93
2022-11-10T17:33:18.776Z,5.60
2022-11-10T17:36:06.106Z,6.17
2022-11-10T17:38:54.524Z,5.10
2022-11-10T17:41:40.777Z,4.90
2022-11-10T17:44:27.581Z,5.47
2022-11-10T17:47:14.021Z,5.10
2022-11-10T17:50:02.107Z,5.53
2022-11-10T17:52:49.121Z,5.87
2022-11-10T17:55:36.969Z,6.30
2022-11-10T17:58:23.370Z,6.50
2022-11-10T18:01:14.218Z,6.73
2022-11-10T18:04:00.263Z,8.10
2022-11-10T18:06:48.254Z,7.60
2022-11-10T18:09:34.722Z,7.27
2022-11-10T18:12:25.400Z,9.90
2022-11-10T18:15:14.811Z,9.70
2022-11-10T18:18:01.514Z,11.13
2022-11-10T18:20:48.207Z,11.03
2022-11-10T18:23:37.093Z,9.90
2022-11-10T18:26:23.583Z,5.73
2022-11-10T18:29:10.181Z,4.33
2022-11-10T18:31:56.188Z,6.50
2022-11-10T18:34:42.562Z,5.07
2022-11-10T18:37:28.823Z,5.53
2022-11-10T18:40:17.281Z,4.03
2022-11-10T18:43:07.469Z,4.73
2022-11-10T18:45:54.819Z,5.30
2022-11-10T18:48:42.418Z,5.27
2022-11-10T18:51:31.078Z,5.30
2022-11-10T18:54:17.129Z,7.30
2022-11-10T18:57:05.231Z,7.10
2022-11-10T18:59:51.563Z,5.70
2022-11-10T19:02:38.300Z,4.67
2022-11-10T19:05:25.265Z,5.23
2022-11-10T19:08:12.264Z,4.87
2022-11-10T19:10:58.470Z,4.20
2022-11-10T19:13:46.095Z,5.20
2022-11-10T19:16:32.678Z,4.67
2022-11-10T19:19:19.450Z,5.10
2022-11-10T19:22:06.114Z,4.70
2022-11-10T19:25:07.635Z,4.20
2022-11-10T19:27:55.364Z,5.13
2022-11-10T19:30:42.954Z,5.77
2022-11-10T19:33:30.015Z,4.90
2022-11-10T19:36:17.824Z,4.90
2022-11-10T19:39:03.860Z,6.33
2022-11-10T19:41:50.742Z,5.70
2022-11-10T19:44:37.080Z,4.77
2022-11-10T19:47:25.382Z,4.50
2022-11-10T19:50:11.560Z,3.90
2022-11-10T19:52:58.411Z,5.10
2022-11-10T19:55:44.480Z,4.83
2022-11-10T19:58:31.397Z,6.03
2022-11-10T20:01:18.984Z,4.53
2022-11-10T20:04:08.620Z,5.27
2022-11-10T20:07:14.848Z,4.47
2022-11-10T20:10:01.570Z,5.13
2022-11-10T20:12:48.468Z,5.60
2022-11-10T20:15:34.587Z,4.50
2022-11-10T20:18:21.346Z,5.17
2022-11-10T20:21:10.726Z,5.23
2022-11-10T20:23:57.885Z,4.47
2022-11-10T20:26:44.240Z,5.00
2022-11-10T20:29:31.512Z,4.50
2022-11-10T20:32:17.642Z,5.03
2022-11-10T20:35:04.731Z,6.00
2022-11-10T20:37:52.528Z,4.57
2022-11-10T20:40:44.819Z,4.87
2022-11-10T20:43:33.991Z,4.77
2022-11-10T20:49:28.505Z,4.80
2022-11-10T20:52:15.307Z,5.20
2022-11-10T20:55:05.228Z,4.90
2022-11-10T20:57:52.060Z,4.43
2022-11-10T21:00:38.008Z,5.30
2022-11-10T21:03:25.064Z,4.07
2022-11-10T21:06:11.562Z,4.20
2022-11-10T21:08:58.006Z,4.07
2022-11-10T21:12:03.601Z,4.93
2022-11-10T21:14:50.156Z,4.13
2022-11-10T21:17:40.164Z,4.67
2022-11-10T21:20:29.193Z,4.57
2022-11-10T21:23:15.635Z,4.70
2022-11-10T21:26:02.252Z,5.53
2022-11-10T21:28:51.007Z,4.77
2022-11-10T21:31:37.056Z,5.00
2022-11-10T21:34:23.481Z,4.33
2022-11-10T21:37:10.036Z,5.83
2022-11-10T21:39:57.830Z,4.73
2022-11-10T21:42:44.126Z,4.00
2022-11-10T21:45:32.844Z,4.30
2022-11-10T21:48:19.462Z,5.20
2022-11-10T21:51:07.286Z,4.77
2022-11-10T21:53:53.402Z,4.37
2022-11-10T21:56:40.063Z,4.60
2022-11-10T21:59:26.507Z,4.10
2022-11-10T22:02:14.971Z,4.10
2022-11-10T22:05:01.441Z,4.30
2022-11-10T22:07:47.923Z,5.50
2022-11-10T22:10:51.418Z,3.90
2022-11-10T22:13:55.379Z,4.40
2022-11-10T22:17:02.322Z,5.50
2022-11-10T22:19:50.165Z,5.00
2022-11-10T22:22:36.641Z,5.00
2022-11-10T22:25:23.273Z,4.93
2022-11-10T22:28:09.478Z,4.57
2022-11-10T22:30:56.153Z,5.50
2022-11-10T22:33:43.449Z,5.17
2022-11-10T22:36:32.652Z,4.67
2022-11-10T22:39:18.988Z,4.63
2022-11-10T22:42:23.435Z,7.30
2022-11-10T22:45:10.538Z,4.40
2022-11-10T22:48:14.967Z,5.00
2022-11-10T22:51:01.464Z,4.63
2022-11-10T22:53:50.010Z,5.30
2022-11-10T22:56:36.330Z,5.03
2022-11-10T22:59:22.868Z,4.87
2022-11-10T23:02:08.884Z,5.20
2022-11-10T23:04:55.796Z,5.27
2022-11-10T23:07:42.092Z,5.10
2022-11-10T23:10:29.998Z,4.90
2022-11-10T23:13:16.481Z,6.07
2022-11-10T23:16:03.728Z,5.43
2022-11-10T23:18:50.659Z,4.57
2022-11-10T23:21:37.691Z,4.80
2022-11-10T23:24:25.042Z,4.43
2022-11-10T23:27:13.298Z,4.93
2022-11-10T23:29:59.697Z,4.60
2022-11-10T23:32:46.386Z,4.63
2022-11-10T23:35:32.803Z,5.83
2022-11-10T23:38:19.671Z,4.73
2022-11-10T23:41:07.289Z,4.60
2022-11-10T23:43:55.561Z,5.60
2022-11-10T23:46:42.277Z,3.90
2022-11-10T23:49:29.524Z,4.70
2022-11-10T23:52:15.800Z,4.10
2022-11-10T23:55:02.232Z,4.50
2022-11-10T23:57:48.750Z,4.87
